Time;durP1;ratioP1;P1;durP2;ratioP2;P2;SDS_P1;SDS_P2;PMS_P1;PMS_P2;Temp;Humidity;BMP_temperature;BMP_pressure;BME280_temperature;BME280_humidity;BME280_pressure;Samples;Min_cycle;Max_cycle;Signal;HPM_P1;HPM_P2
2022/05/01 00:01:15;;;;;;;4.57;4.17;;;9.30;99.90;;;;;;5113582;28;20180;-64
2022/05/01 00:03:42;;;;;;;8.40;4.30;;;9.30;99.90;;;;;;5113756;28;20426;-63
2022/05/01 00:06:09;;;;;;;10.43;4.60;;;9.30;99.90;;;;;;5098083;28;20232;-63
2022/05/01 00:08:37;;;;;;;6.07;4.70;;;9.20;99.90;;;;;;5092683;28;20765;-69
2022/05/01 00:11:03;;;;;;;4.10;3.70;;;9.10;99.90;;;;;;5093472;28;20406;-64
2022/05/01 00:13:29;;;;;;;6.33;4.17;;;9.10;99.90;;;;;;5110148;28;20437;-66
2022/05/01 00:15:56;;;;;;;6.87;4.77;;;8.90;99.90;;;;;;5113684;28;20810;-63
2022/05/01 00:18:22;;;;;;;5.47;3.93;;;8.90;99.90;;;;;;5113251;28;20428;-70
2022/05/01 00:20:47;;;;;;;4.80;3.67;;;8.80;99.90;;;;;;5094387;28;20425;-63
2022/05/01 00:23:14;;;;;;;13.33;4.87;;;8.80;99.90;;;;;;5113695;28;20877;-64
2022/05/01 00:25:41;;;;;;;3.83;3.53;;;8.90;99.90;;;;;;5113333;28;20203;-63
2022/05/01 00:28:11;;;;;;;4.03;3.60;;;8.90;99.90;;;;;;5113407;28;20421;-64
2022/05/01 00:30:38;;;;;;;4.60;4.20;;;9.00;99.90;;;;;;5112935;28;20445;-63
2022/05/01 00:38:34;;;;;;;4.80;3.83;;;9.00;99.90;;;;;;5112575;28;20497;-69
2022/05/01 00:41:00;;;;;;;10.03;4.30;;;8.90;99.90;;;;;;5112712;28;20426;-66
2022/05/01 00:43:26;;;;;;;7.63;5.07;;;8.80;99.90;;;;;;5094864;28;20455;-68
2022/05/01 00:45:52;;;;;;;9.07;4.00;;;8.80;99.90;;;;;;5113365;28;20804;-64
2022/05/01 00:48:18;;;;;;;5.03;4.57;;;8.80;99.90;;;;;;5112758;28;20421;-68
2022/05/01 00:50:44;;;;;;;6.57;5.00;;;8.70;99.90;;;;;;5112658;28;20424;-63
2022/05/01 00:53:10;;;;;;;5.80;5.30;;;8.70;99.90;;;;;;5112785;28;20207;-64
2022/05/01 00:55:37;;;;;;;5.77;3.77;;;8.70;99.90;;;;;;5112646;28;20231;-69
2022/05/01 00:58:05;;;;;;;5.00;4.10;;;8.70;99.90;;;;;;5095016;28;20491;-68
2022/05/01 01:00:32;;;;;;;17.47;4.60;;;8.60;99.90;;;;;;5111789;28;20428;-63
2022/05/01 01:02:57;;;;;;;8.83;4.53;;;8.60;99.90;;;;;;5113335;28;20423;-64
2022/05/01 01:05:23;;;;;;;12.30;4.87;;;8.50;99.90;;;;;;5112971;28;20826;-63
2022/05/01 01:07:49;;;;;;;3.83;3.53;;;8.50;99.90;;;;;;5113112;28;20198;-69
2022/05/01 01:10:14;;;;;;;6.43;4.40;;;8.50;99.90;;;;;;5112441;28;20828;-68
2022/05/01 01:12:55;;;;;;;9.33;4.37;;;8.40;99.90;;;;;;5112452;28;20247;-68
2022/05/01 01:15:23;;;;;;;6.87;4.47;;;8.30;99.90;;;;;;5113166;28;20173;-64
2022/05/01 01:17:54;;;;;;;8.13;4.30;;;8.30;99.90;;;;;;5112615;28;20515;-65
2022/05/01 01:20:27;;;;;;;4.43;2.73;;;8.30;99.90;;;;;;5112028;28;20429;-68
2022/05/01 01:22:58;;;;;;;5.50;3.67;;;8.20;99.90;;;;;;5113227;28;20428;-64
2022/05/01 01:25:29;;;;;;;6.53;3.60;;;8.20;99.90;;;;;;5112558;28;20454;-68
2022/05/01 01:28:02;;;;;;;4.63;3.60;;;8.20;99.90;;;;;;5113095;28;20407;-64
2022/05/01 01:33:14;;;;;;;7.73;3.73;;;8.10;99.90;;;;;;5117065;28;20442;-63
2022/05/01 01:35:40;;;;;;;6.37;4.23;;;8.00;99.90;;;;;;5116735;28;20427;-64
2022/05/01 01:38:06;;;;;;;7.07;3.33;;;8.00;99.90;;;;;;5116310;28;20871;-64
2022/05/01 01:40:39;;;;;;;4.23;3.57;;;7.90;99.90;;;;;;5115423;28;20419;-64
2022/05/01 01:43:06;;;;;;;4.40;4.00;;;7.90;99.90;;;;;;5116328;28;20443;-64
2022/05/01 01:45:32;;;;;;;5.53;3.60;;;7.90;99.90;;;;;;5116676;28;20866;-63
2022/05/01 01:48:18;;;;;;;6.07;3.83;;;7.90;99.90;;;;;;5116158;28;20420;-69
2022/05/01 01:50:53;;;;;;;7.03;4.60;;;7.90;99.90;;;;;;5094890;28;20193;-67
2022/05/01 01:53:19;;;;;;;4.40;3.90;;;7.90;99.90;;;;;;5096480;28;20771;-68
2022/05/01 01:55:44;;;;;;;8.83;4.40;;;7.90;99.90;;;;;;5116123;28;20420;-68
2022/05/01 01:58:10;;;;;;;6.10;3.50;;;7.90;99.90;;;;;;5116157;28;20191;-67
2022/05/01 02:00:35;;;;;;;8.40;4.37;;;7.90;99.90;;;;;;5114486;28;20698;-69
2022/05/01 02:03:06;;;;;;;7.90;5.60;;;7.90;99.90;;;;;;5116150;28;20243;-63
2022/05/01 02:05:34;;;;;;;3.43;2.97;;;8.00;99.90;;;;;;5115837;28;20565;-68
2022/05/01 02:08:00;;;;;;;7.50;3.40;;;7.90;99.90;;;;;;5115420;28;20796;-68
2022/05/01 02:10:26;;;;;;;7.70;3.73;;;7.90;99.90;;;;;;5115090;28;20396;-64
2022/05/01 02:12:54;;;;;;;15.80;4.10;;;8.00;99.90;;;;;;5115386;28;20444;-68
2022/05/01 02:15:19;;;;;;;4.47;4.07;;;8.00;99.90;;;;;;5115944;28;20907;-64
2022/05/01 02:17:46;;;;;;;5.23;3.73;;;8.00;99.90;;;;;;5115367;28;20416;-68
2022/05/01 02:20:11;;;;;;;4.20;3.90;;;8.00;99.90;;;;;;5114868;28;20411;-64
2022/05/01 02:22:41;;;;;;;5.60;4.50;;;8.00;99.90;;;;;;5115147;28;20941;-66
2022/05/01 02:25:08;;;;;;;8.50;3.17;;;8.00;99.90;;;;;;5115491;28;20203;-63
2022/05/01 02:27:37;;;;;;;4.20;3.83;;;8.10;99.90;;;;;;5115302;28;20477;-68
2022/05/01 02:30:08;;;;;;;7.40;4.83;;;7.90;99.90;;;;;;5114851;28;20488;-64
2022/05/01 02:32:38;;;;;;;5.17;4.20;;;7.90;99.90;;;;;;5093677;28;20471;-69
2022/05/01 02:35:05;;;;;;;6.87;5.10;;;7.80;99.90;;;;;;5095356;28;20404;-68
2022/05/01 02:37:31;;;;;;;6.17;4.43;;;7.70;99.90;;;;;;5114744;28;20415;-68
2022/05/01 02:39:57;;;;;;;6.10;4.10;;;7.80;99.90;;;;;;5114849;28;20434;-63
2022/05/01 02:42:22;;;;;;;11.33;4.80;;;7.80;99.90;;;;;;5114118;28;20202;-65
2022/05/01 02:44:48;;;;;;;8.20;3.83;;;7.90;99.90;;;;;;5115243;28;20682;-68
2022/05/01 02:47:14;;;;;;;4.80;4.30;;;7.90;99.90;;;;;;5115034;28;20178;-68
2022/05/01 02:49:40;;;;;;;4.80;4.30;;;7.90;99.90;;;;;;5114589;28;20166;-64
2022/05/01 02:52:07;;;;;;;5.37;4.87;;;7.90;99.90;;;;;;5114632;28;20189;-63
2022/05/01 02:54:33;;;;;;;4.07;3.70;;;8.00;99.90;;;;;;5115112;28;20442;-64
2022/05/01 02:56:59;;;;;;;4.83;3.90;;;8.00;99.90;;;;;;5114681;28;20428;-68
2022/05/01 02:59:24;;;;;;;4.90;4.17;;;8.00;99.90;;;;;;5114341;28;20400;-67
2022/05/01 03:01:50;;;;;;;4.90;4.40;;;7.90;99.90;;;;;;5114004;28;20197;-64
2022/05/01 03:04:16;;;;;;;4.23;3.83;;;7.90;99.90;;;;;;5115139;28;20519;-64
2022/05/01 03:06:42;;;;;;;5.43;4.53;;;7.90;99.90;;;;;;5114743;28;20169;-65
2022/05/01 03:09:08;;;;;;;7.67;4.70;;;8.00;99.90;;;;;;5113985;28;20171;-68
2022/05/01 03:11:35;;;;;;;6.80;4.40;;;7.90;99.90;;;;;;5114884;28;20396;-68
2022/05/01 03:14:01;;;;;;;9.00;4.80;;;8.00;99.90;;;;;;5114020;28;20416;-67
2022/05/01 03:16:26;;;;;;;6.43;4.70;;;8.00;99.90;;;;;;5114749;28;20969;-66
2022/05/01 03:24:20;;;;;;;5.13;4.63;;;8.00;99.90;;;;;;5114058;28;20449;-68
2022/05/01 03:26:47;;;;;;;8.20;5.20;;;7.90;99.90;;;;;;5114496;28;20403;-64
2022/05/01 03:29:17;;;;;;;5.23;4.40;;;8.00;99.90;;;;;;5113007;28;20541;-69
2022/05/01 03:31:45;;;;;;;6.10;4.90;;;8.00;99.90;;;;;;5114530;28;20762;-63
2022/05/01 03:34:11;;;;;;;6.27;4.27;;;8.00;99.90;;;;;;5113908;28;20424;-68
2022/05/01 03:36:36;;;;;;;6.00;4.77;;;8.00;99.90;;;;;;5114050;28;20776;-64
2022/05/01 03:39:04;;;;;;;12.83;4.37;;;8.00;99.90;;;;;;5112981;28;20420;-68
2022/05/01 03:41:31;;;;;;;7.60;5.20;;;8.00;99.90;;;;;;5114115;28;20174;-68
2022/05/01 03:43:57;;;;;;;5.30;4.80;;;8.00;99.90;;;;;;5114033;28;20432;-64
2022/05/01 03:46:23;;;;;;;6.60;6.00;;;8.00;99.90;;;;;;5114387;28;20395;-68
2022/05/01 03:48:50;;;;;;;5.73;5.10;;;8.00;99.90;;;;;;5112891;28;20928;-68
2022/05/01 03:51:16;;;;;;;5.90;4.10;;;8.00;99.90;;;;;;5114040;28;20402;-64
2022/05/01 03:53:42;;;;;;;6.03;4.63;;;8.10;99.90;;;;;;5112960;28;20421;-67
2022/05/01 03:56:08;;;;;;;4.60;4.20;;;8.20;99.90;;;;;;5095254;28;20434;-63
2022/05/01 03:58:34;;;;;;;5.80;5.07;;;8.20;99.90;;;;;;5113185;28;20462;-64
2022/05/01 04:00:59;;;;;;;7.77;5.50;;;8.10;99.90;;;;;;5113628;28;20478;-67
2022/05/01 04:03:25;;;;;;;4.87;4.17;;;8.20;99.90;;;;;;5113924;28;20221;-64
2022/05/01 04:05:52;;;;;;;6.50;4.87;;;8.20;99.90;;;;;;5113435;28;20658;-68
2022/05/01 04:08:18;;;;;;;7.73;5.07;;;8.20;99.90;;;;;;5113806;28;20457;-64
2022/05/01 04:10:45;;;;;;;6.47;4.60;;;8.20;99.90;;;;;;5111952;28;20426;-64
2022/05/01 04:13:12;;;;;;;9.60;4.80;;;8.10;99.90;;;;;;5113788;28;20459;-64
2022/05/01 04:15:39;;;;;;;4.90;4.40;;;8.10;99.90;;;;;;5113296;28;20788;-68
2022/05/01 04:18:06;;;;;;;4.70;4.30;;;8.10;99.90;;;;;;5113814;28;20406;-68
2022/05/01 04:20:32;;;;;;;5.93;4.70;;;8.10;99.90;;;;;;5112542;28;20527;-65
2022/05/01 04:22:59;;;;;;;4.93;4.10;;;8.20;99.90;;;;;;5113413;28;20454;-64
2022/05/01 04:25:29;;;;;;;4.73;4.43;;;8.20;99.90;;;;;;5113585;28;20448;-68
2022/05/01 04:28:07;;;;;;;5.23;4.77;;;8.20;99.90;;;;;;5112633;28;20438;-64
2022/05/01 04:30:33;;;;;;;6.33;4.00;;;8.20;99.90;;;;;;5094214;28;20895;-68
2022/05/01 04:33:08;;;;;;;5.67;4.27;;;8.20;99.90;;;;;;5113105;28;20445;-68
2022/05/01 04:35:37;;;;;;;6.67;4.00;;;8.30;99.90;;;;;;5113515;28;20264;-69
2022/05/01 04:38:14;;;;;;;4.67;4.20;;;8.30;99.90;;;;;;5113259;28;20425;-68
2022/05/01 04:40:46;;;;;;;12.80;4.50;;;8.30;99.90;;;;;;5112694;28;20406;-63
2022/05/01 04:43:20;;;;;;;4.80;4.50;;;8.40;99.90;;;;;;5112950;28;20447;-68
2022/05/01 04:45:48;;;;;;;4.83;4.30;;;8.40;99.90;;;;;;5113502;28;20440;-65
2022/05/01 04:48:15;;;;;;;7.33;5.17;;;8.40;99.90;;;;;;5094764;28;20407;-64
2022/05/01 04:50:41;;;;;;;4.70;4.30;;;8.50;99.90;;;;;;5112288;28;20420;-64
2022/05/01 04:53:12;;;;;;;5.50;4.97;;;8.50;99.90;;;;;;5113450;28;20500;-63
2022/05/01 04:55:39;;;;;;;5.53;4.70;;;8.40;99.90;;;;;;5113192;28;20180;-66
2022/05/01 04:58:06;;;;;;;6.07;3.93;;;8.40;99.90;;;;;;5113397;28;20792;-69
2022/05/01 05:00:32;;;;;;;4.10;3.80;;;8.30;99.90;;;;;;5112253;28;20419;-69
2022/05/01 05:02:58;;;;;;;5.07;4.10;;;8.40;99.90;;;;;;5113320;28;20474;-64
2022/05/01 05:05:29;;;;;;;4.53;4.13;;;8.40;99.90;;;;;;5116034;28;20478;-69
2022/05/01 05:07:55;;;;;;;5.43;4.40;;;8.40;99.90;;;;;;5116779;28;20216;-69
2022/05/01 05:10:21;;;;;;;6.23;4.47;;;8.40;99.90;;;;;;5115877;28;20435;-64
2022/05/01 05:12:48;;;;;;;8.70;4.00;;;8.50;99.90;;;;;;5117059;28;20425;-69
2022/05/01 05:15:17;;;;;;;8.30;4.23;;;8.60;99.90;;;;;;5116857;28;20177;-69
2022/05/01 05:17:43;;;;;;;10.50;4.47;;;8.60;99.90;;;;;;5117051;28;20458;-67
2022/05/01 05:20:11;;;;;;;6.77;4.77;;;8.70;99.90;;;;;;5115802;28;20509;-64
2022/05/01 05:22:39;;;;;;;4.40;4.00;;;8.70;99.90;;;;;;5116871;28;21005;-69
2022/05/01 05:25:09;;;;;;;7.03;4.20;;;8.80;99.90;;;;;;5116114;28;20496;-64
2022/05/01 05:27:34;;;;;;;5.33;4.83;;;8.80;99.90;;;;;;5116825;28;20433;-64
2022/05/01 05:30:00;;;;;;;6.80;4.70;;;8.90;99.90;;;;;;5115536;28;20953;-68
2022/05/01 05:32:26;;;;;;;6.17;5.03;;;9.00;99.90;;;;;;5116748;28;20275;-68
2022/05/01 05:34:52;;;;;;;7.60;5.53;;;9.00;99.90;;;;;;5116662;28;20190;-64
2022/05/01 05:37:18;;;;;;;10.20;5.40;;;9.00;99.90;;;;;;5116777;28;20491;-64
2022/05/01 05:39:45;;;;;;;5.30;4.90;;;9.00;99.90;;;;;;5115460;28;20199;-65
2022/05/01 05:42:11;;;;;;;9.13;5.93;;;9.10;99.90;;;;;;5115736;28;20480;-64
2022/05/01 05:44:37;;;;;;;10.13;4.60;;;9.10;99.90;;;;;;5116501;28;20454;-64
2022/05/01 05:47:03;;;;;;;5.73;5.20;;;9.20;99.90;;;;;;5115811;28;20410;-67
2022/05/01 05:49:31;;;;;;;6.30;5.30;;;9.30;99.90;;;;;;5115674;28;20425;-71
2022/05/01 05:51:57;;;;;;;10.47;5.70;;;9.30;99.90;;;;;;5116543;28;20516;-68
2022/05/01 05:54:23;;;;;;;6.33;5.30;;;9.30;99.90;;;;;;5116272;28;20406;-64
2022/05/01 05:56:49;;;;;;;11.33;5.53;;;9.30;99.90;;;;;;5116362;28;20402;-64
2022/05/01 05:59:15;;;;;;;8.27;5.77;;;9.30;99.90;;;;;;5115186;28;20252;-68
2022/05/01 06:01:45;;;;;;;6.17;5.57;;;9.40;99.90;;;;;;5116982;28;20217;-63
2022/05/01 06:04:10;;;;;;;5.70;5.20;;;9.40;99.90;;;;;;5099386;28;20462;-66
2022/05/01 06:06:36;;;;;;;6.90;5.30;;;9.50;99.90;;;;;;5116194;28;20399;-68
2022/05/01 06:09:02;;;;;;;8.90;6.33;;;9.60;99.90;;;;;;5115276;28;20172;-68
2022/05/01 06:11:28;;;;;;;6.20;5.60;;;9.60;99.90;;;;;;5116225;28;20169;-63
2022/05/01 06:13:54;;;;;;;11.40;6.53;;;9.60;99.90;;;;;;5097587;28;20463;-63
2022/05/01 06:16:19;;;;;;;12.50;6.03;;;9.50;99.90;;;;;;5114955;28;20194;-68
2022/05/01 06:18:45;;;;;;;8.10;5.43;;;9.50;99.90;;;;;;5114516;28;20429;-69
2022/05/01 06:21:11;;;;;;;8.20;5.57;;;9.50;99.90;;;;;;5115605;28;20164;-64
2022/05/01 06:23:37;;;;;;;7.10;5.00;;;9.50;99.90;;;;;;5115751;28;20238;-64
2022/05/01 06:26:05;;;;;;;7.30;5.30;;;9.60;99.90;;;;;;5115683;28;20446;-64
2022/05/01 06:28:31;;;;;;;6.50;5.47;;;9.60;99.90;;;;;;5096446;28;20746;-70
2022/05/01 06:30:58;;;;;;;6.43;5.70;;;9.70;99.90;;;;;;5115659;28;20419;-68
2022/05/01 06:33:24;;;;;;;5.30;4.17;;;9.70;99.90;;;;;;5115321;28;20584;-64
2022/05/01 06:35:53;;;;;;;8.47;4.77;;;9.70;99.90;;;;;;5115305;28;20431;-67
2022/05/01 06:38:19;;;;;;;7.67;5.77;;;9.70;99.90;;;;;;5101844;28;20911;-63
2022/05/01 06:40:46;;;;;;;6.20;5.40;;;9.70;99.90;;;;;;5114389;28;20413;-64
2022/05/01 06:43:12;;;;;;;14.33;5.90;;;9.80;99.90;;;;;;5115314;28;20896;-69
2022/05/01 06:45:38;;;;;;;6.33;4.70;;;9.80;99.90;;;;;;5115414;28;20454;-68
2022/05/01 06:48:04;;;;;;;4.67;4.30;;;9.80;99.90;;;;;;5115280;28;20408;-68
2022/05/01 06:50:30;;;;;;;7.17;4.80;;;9.80;99.90;;;;;;5114391;28;20464;-69
2022/05/01 06:52:56;;;;;;;5.20;4.70;;;9.70;99.90;;;;;;5114975;28;20426;-67
2022/05/01 06:55:25;;;;;;;5.87;5.23;;;9.70;99.90;;;;;;5114500;28;20421;-64
2022/05/01 06:57:54;;;;;;;8.73;5.60;;;9.70;99.90;;;;;;5115365;28;20240;-68
2022/05/01 07:00:20;;;;;;;6.60;5.43;;;9.80;99.90;;;;;;5114271;28;20763;-64
2022/05/01 07:02:51;;;;;;;5.63;4.90;;;9.90;99.90;;;;;;5115028;28;20441;-65
2022/05/01 07:05:18;;;;;;;5.13;4.80;;;9.90;99.90;;;;;;5114945;28;20433;-64
2022/05/01 07:07:44;;;;;;;5.57;5.00;;;10.00;99.90;;;;;;5115010;28;20399;-68
2022/05/01 07:10:10;;;;;;;5.10;4.37;;;10.10;99.90;;;;;;5113600;28;20876;-67
2022/05/01 07:12:36;;;;;;;4.93;4.43;;;10.20;99.90;;;;;;5114266;28;20768;-65
2022/05/01 07:15:03;;;;;;;6.30;5.07;;;10.30;99.90;;;;;;5114860;28;20418;-64
2022/05/01 07:17:28;;;;;;;5.37;4.97;;;10.30;99.90;;;;;;5114635;28;20407;-68
2022/05/01 07:19:54;;;;;;;5.03;4.40;;;10.40;99.90;;;;;;5113880;28;20399;-68
2022/05/01 07:22:20;;;;;;;4.53;4.13;;;10.30;99.90;;;;;;5114679;28;20189;-64
2022/05/01 07:24:45;;;;;;;5.30;4.80;;;10.40;99.90;;;;;;5096455;28;20235;-67
2022/05/01 07:27:11;;;;;;;6.00;5.17;;;10.50;99.90;;;;;;5113388;28;20164;-63
2022/05/01 07:29:37;;;;;;;4.37;4.07;;;10.70;99.90;;;;;;5094949;28;20183;-64
2022/05/01 07:32:03;;;;;;;3.70;3.33;;;10.80;99.90;;;;;;5114548;28;20223;-64
2022/05/01 07:34:29;;;;;;;5.17;4.23;;;10.80;99.90;;;;;;5114414;28;20537;-67
2022/05/01 07:36:55;;;;;;;6.37;5.70;;;10.90;99.90;;;;;;5114314;28;20413;-64
2022/05/01 07:39:21;;;;;;;5.10;4.30;;;11.00;99.90;;;;;;5095496;28;20176;-68
2022/05/01 07:41:47;;;;;;;6.83;3.97;;;11.30;99.90;;;;;;5096343;28;20760;-64
2022/05/01 07:44:12;;;;;;;4.40;4.00;;;11.40;99.90;;;;;;5113472;28;20263;-68
2022/05/01 07:46:39;;;;;;;4.27;3.90;;;11.50;99.90;;;;;;5114244;28;20165;-68
2022/05/01 07:49:05;;;;;;;4.10;3.80;;;11.50;99.90;;;;;;5113087;28;20172;-67
2022/05/01 07:51:32;;;;;;;4.40;3.60;;;11.50;99.90;;;;;;5095798;28;20493;-64
2022/05/01 07:53:58;;;;;;;6.37;4.17;;;11.50;99.90;;;;;;5114300;28;20394;-68
2022/05/01 07:56:25;;;;;;;3.90;3.60;;;11.40;99.90;;;;;;5114342;28;20386;-63
2022/05/01 07:58:51;;;;;;;3.67;3.47;;;11.40;99.90;;;;;;5113178;28;20430;-64
2022/05/01 08:01:17;;;;;;;4.40;4.07;;;11.40;99.90;;;;;;5113122;28;20776;-64
2022/05/01 08:06:27;;;;;;;3.97;3.07;;;11.30;99.90;;;;;;5114032;28;20685;-63
2022/05/01 08:08:52;;;;;;;3.70;3.50;;;11.40;99.90;;;;;;5113089;28;20474;-67
2022/05/01 08:11:18;;;;;;;4.97;3.60;;;11.40;99.90;;;;;;5113946;28;20161;-64
2022/05/01 08:13:44;;;;;;;4.47;4.00;;;11.50;99.90;;;;;;5113933;28;20176;-69
2022/05/01 08:16:10;;;;;;;8.60;4.03;;;11.60;99.90;;;;;;5113595;28;20181;-68
2022/05/01 08:21:21;;;;;;;5.20;4.77;;;11.60;99.90;;;;;;5114074;28;20379;-67
2022/05/01 08:23:47;;;;;;;5.23;4.13;;;11.60;99.90;;;;;;5113758;28;20423;-64
2022/05/01 08:26:14;;;;;;;4.63;4.23;;;11.70;99.90;;;;;;5095475;28;20933;-64
2022/05/01 08:28:41;;;;;;;3.77;3.27;;;11.70;99.90;;;;;;5112930;28;20902;-69
2022/05/01 08:31:09;;;;;;;3.90;3.50;;;11.80;99.90;;;;;;5113808;28;20453;-64
2022/05/01 08:33:35;;;;;;;4.07;3.77;;;11.90;99.90;;;;;;5113253;28;20431;-64
2022/05/01 08:36:03;;;;;;;4.10;3.80;;;12.00;99.90;;;;;;5113715;28;20374;-69
2022/05/01 08:38:30;;;;;;;6.73;3.70;;;12.20;99.90;;;;;;5112739;28;20386;-70
2022/05/01 08:40:55;;;;;;;4.43;3.80;;;12.40;99.90;;;;;;5099489;28;20468;-69
2022/05/01 08:43:23;;;;;;;5.13;4.40;;;12.60;99.90;;;;;;5099281;28;20961;-68
2022/05/01 08:46:27;;;;;;;3.93;3.63;;;12.80;99.90;;;;;;5117832;28;20242;-63
2022/05/01 08:48:56;;;;;;;4.37;3.50;;;13.10;99.90;;;;;;5098029;28;20393;-69
2022/05/01 08:51:22;;;;;;;4.13;3.40;;;13.40;99.90;;;;;;5117528;28;20460;-68
2022/05/01 08:53:49;;;;;;;3.03;2.83;;;13.60;99.90;;;;;;5117407;28;20401;-64
2022/05/01 08:56:15;;;;;;;3.60;3.30;;;13.60;99.90;;;;;;5098833;28;20381;-64
2022/05/01 08:58:41;;;;;;;2.80;2.50;;;13.80;99.90;;;;;;5116611;28;20401;-69
2022/05/01 09:01:11;;;;;;;2.63;2.53;;;13.80;99.40;;;;;;5117475;28;20430;-69
2022/05/01 09:03:39;;;;;;;3.00;2.80;;;13.80;93.40;;;;;;5117297;28;20471;-68
2022/05/01 09:06:05;;;;;;;7.97;2.50;;;13.90;94.60;;;;;;5116939;28;20972;-68
2022/05/01 09:08:30;;;;;;;3.50;2.60;;;14.20;93.60;;;;;;5116396;28;20426;-69
2022/05/01 09:10:56;;;;;;;2.30;2.10;;;14.40;93.70;;;;;;5098990;28;20791;-65
2022/05/01 09:13:25;;;;;;;2.70;2.50;;;14.60;83.90;;;;;;5117080;28;20181;-69
2022/05/01 09:15:52;;;;;;;2.57;2.00;;;14.80;93.60;;;;;;5117028;28;20161;-69
2022/05/01 09:18:18;;;;;;;1.80;1.63;;;14.90;89.50;;;;;;5117291;28;20908;-63
2022/05/01 09:21:03;;;;;;;2.90;2.70;;;15.10;82.50;;;;;;5116131;28;20436;-68
2022/05/01 09:23:44;;;;;;;3.47;2.27;;;15.10;70.50;;;;;;5098472;28;20917;-68
2022/05/01 09:26:12;;;;;;;3.53;2.00;;;15.20;69.50;;;;;;5116935;28;20453;-63
2022/05/01 09:28:53;;;;;;;1.90;1.70;;;15.40;63.00;;;;;;5116124;28;20410;-64
2022/05/01 09:31:50;;;;;;;4.07;2.10;;;15.70;43.30;;;;;;5116436;28;20851;-64
2022/05/01 09:34:24;;;;;;;1.87;1.77;;;15.90;42.10;;;;;;5116845;28;20930;-69
2022/05/01 09:36:50;;;;;;;3.73;2.23;;;16.00;39.80;;;;;;5116709;28;20480;-64
2022/05/01 09:39:23;;;;;;;1.93;1.50;;;16.20;35.90;;;;;;5115574;28;20422;-69
2022/05/01 09:41:51;;;;;;;3.10;1.50;;;16.70;18.70;;;;;;5116360;28;20419;-65
2022/05/01 09:44:18;;;;;;;3.00;1.43;;;16.60;6.60;;;;;;5116497;28;20926;-64
2022/05/01 09:46:44;;;;;;;2.10;1.40;;;16.80;10.20;;;;;;5116614;28;20395;-69
2022/05/01 09:49:13;;;;;;;1.57;1.47;;;17.20;4.60;;;;;;5115560;28;20475;-63
2022/05/01 09:51:46;;;;;;;3.30;1.47;;;17.60;1.20;;;;;;5112567;28;20714;-64
2022/05/01 09:54:18;;;;;;;1.50;1.40;;;17.70;1.00;;;;;;5115747;28;20410;-69
2022/05/01 09:56:47;;;;;;;3.07;1.60;;;17.90;1.00;;;;;;5097144;28;20435;-69
2022/05/01 09:59:14;;;;;;;1.50;1.40;;;18.30;1.00;;;;;;5095033;28;20495;-69
2022/05/01 10:01:40;;;;;;;2.47;1.30;;;18.60;1.00;;;;;;5099093;28;20433;-64
2022/05/01 10:04:07;;;;;;;3.20;1.23;;;18.70;1.00;;;;;;5116181;28;20395;-65
2022/05/01 10:06:33;;;;;;;3.13;1.20;;;18.60;1.00;;;;;;5116037;28;20465;-69
2022/05/01 10:09:01;;;;;;;1.50;1.27;;;18.60;1.00;;;;;;5110109;28;20775;-64
2022/05/01 10:11:29;;;;;;;2.13;1.50;;;18.60;1.00;;;;;;5095647;28;20399;-69
2022/05/01 10:13:56;;;;;;;6.90;1.80;;;18.90;1.00;;;;;;5095629;28;20411;-64
2022/05/01 10:19:55;;;;;;;3.77;1.60;;;19.50;1.00;;;;;;5031710;28;20413;-64
2022/05/01 10:22:23;;;;;;;2.00;1.50;;;18.90;1.00;;;;;;5033086;28;20434;-69
2022/05/01 10:24:49;;;;;;;1.97;1.60;;;17.70;1.00;;;;;;5086908;28;20454;-69
2022/05/01 10:27:33;;;;;;;2.23;1.43;;;16.90;1.00;;;;;;5095035;28;20399;-69
2022/05/01 10:33:01;;;;;;;2.80;1.90;;;15.80;1.00;;;;;;5095232;28;20427;-64
2022/05/01 10:35:45;;;;;;;1.80;1.70;;;15.30;1.00;;;;;;5095259;28;20898;-64
2022/05/01 10:38:30;;;;;;;2.20;1.40;;;15.10;1.00;;;;;;5111045;28;20408;-69
2022/05/01 10:40:59;;;;;;;1.70;1.60;;;14.90;1.00;;;;;;5096255;28;20412;-69
2022/05/01 10:43:28;;;;;;;1.50;1.40;;;15.00;1.00;;;;;;5094851;28;20488;-67
2022/05/01 10:45:59;;;;;;;1.43;1.33;;;15.10;1.00;;;;;;5094785;28;20426;-64
2022/05/01 10:48:35;;;;;;;2.63;1.50;;;15.20;1.00;;;;;;5094704;28;20399;-65
2022/05/01 10:51:38;;;;;;;3.30;1.30;;;15.50;1.00;;;;;;5094959;28;20473;-69
2022/05/01 10:54:10;;;;;;;1.50;1.40;;;15.50;1.00;;;;;;5095928;28;20530;-69
2022/05/01 10:56:38;;;;;;;2.00;1.90;;;15.20;1.00;;;;;;5094699;28;20422;-69
2022/05/01 10:59:35;;;;;;;1.40;1.10;;;15.30;1.00;;;;;;5093888;28;20418;-69
2022/05/01 11:02:05;;;;;;;1.43;1.33;;;15.10;1.00;;;;;;5094648;28;20502;-64
2022/05/01 11:04:41;;;;;;;2.23;2.03;;;15.20;1.00;;;;;;5094115;28;20420;-65
2022/05/01 11:07:10;;;;;;;3.53;1.40;;;15.20;1.00;;;;;;5094984;28;20398;-65
2022/05/01 11:09:37;;;;;;;1.50;1.40;;;15.10;1.00;;;;;;5114198;28;20395;-64
2022/05/01 11:12:09;;;;;;;1.60;1.50;;;15.40;1.00;;;;;;5081243;28;21012;-64
2022/05/01 11:14:41;;;;;;;2.83;1.33;;;16.00;1.00;;;;;;5094529;28;20400;-65
2022/05/01 11:17:12;;;;;;;2.27;1.40;;;16.00;1.00;;;;;;5110433;28;20408;-69
2022/05/01 11:19:45;;;;;;;1.73;1.63;;;15.90;1.00;;;;;;5093553;28;20412;-69
2022/05/01 11:22:14;;;;;;;2.93;2.73;;;15.90;1.00;;;;;;5093879;28;20920;-69
2022/05/01 11:24:42;;;;;;;2.40;2.20;;;15.50;1.00;;;;;;5077090;28;20451;-69
2022/05/01 11:27:11;;;;;;;2.27;2.13;;;15.40;1.00;;;;;;5094271;28;20431;-64
2022/05/01 11:29:37;;;;;;;2.63;1.90;;;15.20;1.00;;;;;;5109354;28;20401;-64
2022/05/01 11:32:19;;;;;;;2.17;1.97;;;15.40;1.00;;;;;;5109994;28;20406;-69
2022/05/01 11:34:54;;;;;;;1.70;1.60;;;16.30;1.00;;;;;;5094102;28;20765;-65
2022/05/01 11:37:21;;;;;;;2.00;1.80;;;17.60;1.00;;;;;;5094373;28;20397;-69
2022/05/01 11:39:50;;;;;;;1.87;1.77;;;17.50;1.00;;;;;;5093140;28;20387;-65
2022/05/01 11:44:51;;;;;;;3.10;1.40;;;16.30;1.00;;;;;;5114380;28;20619;-69
2022/05/01 11:47:22;;;;;;;3.87;2.60;;;16.20;1.00;;;;;;5114291;28;20433;-69
2022/05/01 11:49:47;;;;;;;2.30;2.20;;;15.80;1.00;;;;;;5095368;28;20419;-64
2022/05/01 11:52:14;;;;;;;2.90;2.53;;;15.40;1.00;;;;;;5114166;28;20992;-64
2022/05/01 11:54:44;;;;;;;2.80;2.60;;;15.00;1.00;;;;;;5114175;28;20164;-69
2022/05/01 12:02:38;;;;;;;1.77;1.63;;;15.20;1.00;;;;;;5114070;28;20835;-69
2022/05/01 12:05:05;;;;;;;2.50;2.30;;;15.00;1.00;;;;;;5113744;28;20560;-70
2022/05/01 12:07:36;;;;;;;2.23;2.03;;;15.00;1.00;;;;;;5113982;28;20208;-64
2022/05/01 12:10:02;;;;;;;2.50;2.30;;;15.00;1.00;;;;;;5113315;28;20796;-70
2022/05/01 12:12:30;;;;;;;1.90;1.80;;;15.00;1.00;;;;;;5095643;28;20812;-71
2022/05/01 12:14:58;;;;;;;3.57;3.00;;;15.10;1.00;;;;;;5111477;28;20473;-67
2022/05/01 12:17:31;;;;;;;150.93;138.90;;;15.00;1.00;;;;;;5113740;28;20767;-72
2022/05/01 12:20:17;;;;;;;4.60;2.80;;;14.80;1.00;;;;;;5112404;28;20442;-68
2022/05/01 12:22:43;;;;;;;2.20;1.90;;;14.70;1.00;;;;;;5113517;28;20930;-71
2022/05/01 12:25:12;;;;;;;1.90;1.80;;;14.60;1.00;;;;;;5113316;28;20471;-70
2022/05/01 12:27:41;;;;;;;4.77;1.80;;;14.50;1.00;;;;;;5113803;28;20499;-71
2022/05/01 12:30:09;;;;;;;2.00;1.90;;;14.50;1.00;;;;;;5112051;28;20459;-65
2022/05/01 12:32:36;;;;;;;1.60;1.50;;;14.40;1.00;;;;;;5113657;28;20422;-64
2022/05/01 12:35:04;;;;;;;2.07;1.87;;;14.20;1.00;;;;;;5113688;28;20868;-65
2022/05/01 12:37:43;;;;;;;1.67;1.57;;;14.00;1.00;;;;;;5095637;28;20469;-68
2022/05/01 12:40:12;;;;;;;2.10;1.90;;;14.10;1.00;;;;;;5112218;28;20827;-69
2022/05/01 12:45:44;;;;;;;2.70;1.77;;;14.30;1.00;;;;;;5113480;28;20802;-69
2022/05/01 12:48:17;;;;;;;1.83;1.70;;;14.40;1.00;;;;;;5113187;28;20394;-64
2022/05/01 12:50:43;;;;;;;4.70;2.10;;;14.50;1.00;;;;;;5112641;28;20483;-65
2022/05/01 12:53:29;;;;;;;1.87;1.77;;;14.70;1.00;;;;;;5113430;28;20402;-69
2022/05/01 12:55:58;;;;;;;1.50;1.40;;;15.00;1.00;;;;;;5113125;28;20377;-69
2022/05/01 12:58:34;;;;;;;1.57;1.47;;;15.00;1.00;;;;;;5113219;28;20498;-70
2022/05/01 13:01:03;;;;;;;1.97;1.77;;;14.90;1.00;;;;;;5113535;28;20399;-70
2022/05/01 13:03:36;;;;;;;4.10;1.80;;;15.30;1.00;;;;;;5113005;28;20803;-65
2022/05/01 13:06:07;;;;;;;2.37;1.70;;;15.90;1.00;;;;;;5109994;28;20462;-64
2022/05/01 13:08:51;;;;;;;1.70;1.47;;;16.40;1.00;;;;;;5110933;28;20441;-71
2022/05/01 13:11:31;;;;;;;1.50;1.40;;;16.80;1.00;;;;;;5113120;28;20418;-71
2022/05/01 13:14:08;;;;;;;2.03;1.53;;;17.10;1.00;;;;;;5112856;28;20748;-65
2022/05/01 13:16:34;;;;;;;1.90;1.70;;;17.70;1.00;;;;;;5113294;28;20401;-74
2022/05/01 13:19:11;;;;;;;2.80;1.70;;;17.80;1.00;;;;;;5093940;28;20419;-71
2022/05/01 13:21:42;;;;;;;1.67;1.57;;;17.60;1.00;;;;;;5112668;28;20196;-70
2022/05/01 13:24:12;;;;;;;1.77;1.67;;;17.40;1.00;;;;;;5113309;28;20478;-64
2022/05/01 13:26:38;;;;;;;2.43;2.27;;;17.50;1.00;;;;;;5116517;28;20471;-70
2022/05/01 13:29:09;;;;;;;1.50;1.40;;;17.40;1.00;;;;;;5116254;28;20493;-71
2022/05/01 13:31:40;;;;;;;1.60;1.50;;;17.60;1.00;;;;;;5098395;28;20767;-70
2022/05/01 13:34:06;;;;;;;2.10;1.70;;;17.60;1.00;;;;;;5116630;28;20419;-64
2022/05/01 13:36:32;;;;;;;2.33;1.67;;;17.00;1.00;;;;;;5116050;28;20491;-70
2022/05/01 13:38:59;;;;;;;1.57;1.47;;;16.70;1.00;;;;;;5115913;28;20895;-70